sensor_id;sensor_type;location;lat;lon;timestamp;P1;durP1;ratioP1;P2;durP2;ratioP2
70406;SDS011;57821;52.202;0.154;2024-03-08T00:00:09;66.53;;;29.10;;
70406;SDS011;57821;52.202;0.154;2024-03-08T00:02:43;60.42;;;29.70;;
70406;SDS011;57821;52.202;0.154;2024-03-08T00:05:10;53.47;;;26.38;;
70406;SDS011;57821;52.202;0.154;2024-03-08T00:07:38;60.97;;;28.00;;
70406;SDS011;57821;52.202;0.154;2024-03-08T00:10:06;60.45;;;29.58;;
70406;SDS011;57821;52.202;0.154;2024-03-08T00:15:11;52.67;;;26.75;;
70406;SDS011;57821;52.202;0.154;2024-03-08T00:17:42;57.35;;;26.70;;
70406;SDS011;57821;52.202;0.154;2024-03-08T00:20:10;50.67;;;26.17;;
70406;SDS011;57821;52.202;0.154;2024-03-08T00:22:37;55.58;;;27.88;;
70406;SDS011;57821;52.202;0.154;2024-03-08T00:25:05;59.45;;;28.13;;
70406;SDS011;57821;52.202;0.154;2024-03-08T00:27:36;60.03;;;27.77;;
70406;SDS011;57821;52.202;0.154;2024-03-08T00:30:04;58.90;;;28.50;;
70406;SDS011;57821;52.202;0.154;2024-03-08T00:32:32;55.95;;;27.95;;
70406;SDS011;57821;52.202;0.154;2024-03-08T00:34:59;61.00;;;29.63;;
70406;SDS011;57821;52.202;0.154;2024-03-08T00:37:25;60.55;;;29.42;;
70406;SDS011;57821;52.202;0.154;2024-03-08T00:39:52;49.97;;;26.80;;
70406;SDS011;57821;52.202;0.154;2024-03-08T00:42:20;51.47;;;27.40;;
70406;SDS011;57821;52.202;0.154;2024-03-08T00:44:47;55.70;;;27.08;;
70406;SDS011;57821;52.202;0.154;2024-03-08T00:47:18;57.00;;;28.05;;
70406;SDS011;57821;52.202;0.154;2024-03-08T00:49:45;48.88;;;27.38;;
70406;SDS011;57821;52.202;0.154;2024-03-08T00:52:13;55.40;;;29.40;;
70406;SDS011;57821;52.202;0.154;2024-03-08T00:54:40;53.42;;;27.95;;
70406;SDS011;57821;52.202;0.154;2024-03-08T00:57:07;52.72;;;29.00;;
70406;SDS011;57821;52.202;0.154;2024-03-08T00:59:34;59.55;;;29.35;;
70406;SDS011;57821;52.202;0.154;2024-03-08T01:02:01;53.35;;;28.15;;
70406;SDS011;57821;52.202;0.154;2024-03-08T01:04:28;53.63;;;27.30;;
70406;SDS011;57821;52.202;0.154;2024-03-08T01:06:56;54.60;;;27.95;;
70406;SDS011;57821;52.202;0.154;2024-03-08T01:09:24;55.03;;;29.38;;
70406;SDS011;57821;52.202;0.154;2024-03-08T01:11:51;57.80;;;28.83;;
70406;SDS011;57821;52.202;0.154;2024-03-08T01:14:21;50.83;;;28.38;;
70406;SDS011;57821;52.202;0.154;2024-03-08T01:19:19;51.65;;;25.83;;
70406;SDS011;57821;52.202;0.154;2024-03-08T01:21:45;54.58;;;27.48;;
70406;SDS011;57821;52.202;0.154;2024-03-08T01:24:12;46.10;;;26.50;;
70406;SDS011;57821;52.202;0.154;2024-03-08T01:26:39;50.42;;;26.63;;
70406;SDS011;57821;52.202;0.154;2024-03-08T01:29:06;54.72;;;28.45;;
70406;SDS011;57821;52.202;0.154;2024-03-08T01:31:33;54.20;;;27.48;;
70406;SDS011;57821;52.202;0.154;2024-03-08T01:33:59;52.08;;;27.20;;
70406;SDS011;57821;52.202;0.154;2024-03-08T01:36:26;51.97;;;28.27;;
70406;SDS011;57821;52.202;0.154;2024-03-08T01:38:53;49.42;;;26.67;;
70406;SDS011;57821;52.202;0.154;2024-03-08T01:41:20;47.05;;;25.05;;
70406;SDS011;57821;52.202;0.154;2024-03-08T01:43:47;57.70;;;27.65;;
70406;SDS011;57821;52.202;0.154;2024-03-08T01:46:15;52.80;;;26.50;;
70406;SDS011;57821;52.202;0.154;2024-03-08T01:48:45;53.28;;;26.02;;
70406;SDS011;57821;52.202;0.154;2024-03-08T01:51:12;47.15;;;27.70;;
70406;SDS011;57821;52.202;0.154;2024-03-08T01:53:42;50.55;;;26.27;;
70406;SDS011;57821;52.202;0.154;2024-03-08T01:56:12;53.35;;;26.52;;
70406;SDS011;57821;52.202;0.154;2024-03-08T01:58:43;49.80;;;25.50;;
70406;SDS011;57821;52.202;0.154;2024-03-08T02:01:11;50.38;;;24.70;;
70406;SDS011;57821;52.202;0.154;2024-03-08T02:03:41;50.70;;;25.65;;
70406;SDS011;57821;52.202;0.154;2024-03-08T02:06:13;53.65;;;26.63;;
70406;SDS011;57821;52.202;0.154;2024-03-08T02:08:42;54.08;;;27.48;;
70406;SDS011;57821;52.202;0.154;2024-03-08T02:11:10;51.17;;;28.20;;
70406;SDS011;57821;52.202;0.154;2024-03-08T02:13:39;52.42;;;26.58;;
70406;SDS011;57821;52.202;0.154;2024-03-08T02:16:06;55.28;;;27.83;;
70406;SDS011;57821;52.202;0.154;2024-03-08T02:18:34;51.15;;;26.67;;
70406;SDS011;57821;52.202;0.154;2024-03-08T02:21:02;49.85;;;26.15;;
70406;SDS011;57821;52.202;0.154;2024-03-08T02:23:30;54.80;;;26.85;;
70406;SDS011;57821;52.202;0.154;2024-03-08T02:25:58;53.42;;;26.58;;
70406;SDS011;57821;52.202;0.154;2024-03-08T02:28:25;52.45;;;27.35;;
70406;SDS011;57821;52.202;0.154;2024-03-08T02:30:52;53.42;;;26.17;;
70406;SDS011;57821;52.202;0.154;2024-03-08T02:33:22;54.20;;;26.95;;
70406;SDS011;57821;52.202;0.154;2024-03-08T02:35:50;56.35;;;27.88;;
70406;SDS011;57821;52.202;0.154;2024-03-08T02:38:18;54.90;;;26.77;;
70406;SDS011;57821;52.202;0.154;2024-03-08T02:40:47;54.78;;;26.85;;
70406;SDS011;57821;52.202;0.154;2024-03-08T02:43:15;52.38;;;26.75;;
70406;SDS011;57821;52.202;0.154;2024-03-08T02:45:48;55.85;;;27.48;;
70406;SDS011;57821;52.202;0.154;2024-03-08T02:48:16;53.38;;;27.42;;
70406;SDS011;57821;52.202;0.154;2024-03-08T02:50:43;53.40;;;27.52;;
70406;SDS011;57821;52.202;0.154;2024-03-08T02:53:11;60.45;;;28.52;;
70406;SDS011;57821;52.202;0.154;2024-03-08T02:55:39;55.72;;;28.05;;
70406;SDS011;57821;52.202;0.154;2024-03-08T02:58:07;53.17;;;27.73;;
70406;SDS011;57821;52.202;0.154;2024-03-08T03:00:38;53.45;;;27.75;;
70406;SDS011;57821;52.202;0.154;2024-03-08T03:03:06;55.92;;;27.05;;
70406;SDS011;57821;52.202;0.154;2024-03-08T03:05:34;54.30;;;28.55;;
70406;SDS011;57821;52.202;0.154;2024-03-08T03:08:01;59.70;;;28.60;;
70406;SDS011;57821;52.202;0.154;2024-03-08T03:10:30;63.33;;;28.33;;
70406;SDS011;57821;52.202;0.154;2024-03-08T03:12:57;61.72;;;28.77;;
70406;SDS011;57821;52.202;0.154;2024-03-08T03:15:24;53.80;;;28.15;;
70406;SDS011;57821;52.202;0.154;2024-03-08T03:17:53;61.45;;;28.75;;
70406;SDS011;57821;52.202;0.154;2024-03-08T03:20:21;63.45;;;28.65;;
70406;SDS011;57821;52.202;0.154;2024-03-08T03:22:59;62.75;;;29.50;;
70406;SDS011;57821;52.202;0.154;2024-03-08T03:25:28;54.28;;;28.58;;
70406;SDS011;57821;52.202;0.154;2024-03-08T03:28:02;62.83;;;29.58;;
70406;SDS011;57821;52.202;0.154;2024-03-08T03:30:29;60.28;;;28.58;;
70406;SDS011;57821;52.202;0.154;2024-03-08T03:32:59;60.88;;;30.33;;
70406;SDS011;57821;52.202;0.154;2024-03-08T03:35:28;54.78;;;28.85;;
70406;SDS011;57821;52.202;0.154;2024-03-08T03:37:56;60.53;;;29.63;;
70406;SDS011;57821;52.202;0.154;2024-03-08T03:40:34;59.40;;;29.90;;
70406;SDS011;57821;52.202;0.154;2024-03-08T03:43:02;56.50;;;30.33;;
70406;SDS011;57821;52.202;0.154;2024-03-08T03:45:29;62.25;;;29.35;;
70406;SDS011;57821;52.202;0.154;2024-03-08T03:48:03;64.97;;;31.52;;
70406;SDS011;57821;52.202;0.154;2024-03-08T03:50:31;63.97;;;31.52;;
70406;SDS011;57821;52.202;0.154;2024-03-08T03:53:02;66.55;;;31.95;;
70406;SDS011;57821;52.202;0.154;2024-03-08T03:55:29;66.45;;;30.45;;
70406;SDS011;57821;52.202;0.154;2024-03-08T03:57:56;68.28;;;32.38;;
70406;SDS011;57821;52.202;0.154;2024-03-08T04:00:25;69.07;;;31.38;;
70406;SDS011;57821;52.202;0.154;2024-03-08T04:02:53;72.05;;;32.45;;
70406;SDS011;57821;52.202;0.154;2024-03-08T04:05:21;67.35;;;31.90;;
70406;SDS011;57821;52.202;0.154;2024-03-08T04:07:48;69.10;;;32.65;;
70406;SDS011;57821;52.202;0.154;2024-03-08T04:10:15;69.60;;;31.95;;
70406;SDS011;57821;52.202;0.154;2024-03-08T04:12:41;68.32;;;31.35;;
70406;SDS011;57821;52.202;0.154;2024-03-08T04:15:08;68.65;;;31.60;;
70406;SDS011;57821;52.202;0.154;2024-03-08T04:17:37;67.07;;;32.75;;
70406;SDS011;57821;52.202;0.154;2024-03-08T04:20:04;67.50;;;31.15;;
70406;SDS011;57821;52.202;0.154;2024-03-08T04:22:36;69.40;;;33.65;;
70406;SDS011;57821;52.202;0.154;2024-03-08T04:25:03;68.97;;;32.17;;
70406;SDS011;57821;52.202;0.154;2024-03-08T04:27:31;71.57;;;33.95;;
70406;SDS011;57821;52.202;0.154;2024-03-08T04:29:59;67.80;;;31.58;;
70406;SDS011;57821;52.202;0.154;2024-03-08T04:32:26;65.85;;;31.55;;
70406;SDS011;57821;52.202;0.154;2024-03-08T04:34:55;69.38;;;32.50;;
70406;SDS011;57821;52.202;0.154;2024-03-08T04:37:23;70.70;;;32.92;;
70406;SDS011;57821;52.202;0.154;2024-03-08T04:39:50;69.95;;;32.58;;
70406;SDS011;57821;52.202;0.154;2024-03-08T04:42:16;73.03;;;33.10;;
70406;SDS011;57821;52.202;0.154;2024-03-08T04:44:44;69.15;;;33.00;;
70406;SDS011;57821;52.202;0.154;2024-03-08T04:47:11;69.60;;;32.85;;
70406;SDS011;57821;52.202;0.154;2024-03-08T04:49:38;76.03;;;33.25;;
70406;SDS011;57821;52.202;0.154;2024-03-08T04:52:05;73.80;;;34.17;;
70406;SDS011;57821;52.202;0.154;2024-03-08T04:54:33;72.28;;;34.08;;
70406;SDS011;57821;52.202;0.154;2024-03-08T04:57:01;68.32;;;32.42;;
70406;SDS011;57821;52.202;0.154;2024-03-08T04:59:32;71.82;;;33.42;;
70406;SDS011;57821;52.202;0.154;2024-03-08T05:01:58;66.82;;;31.17;;
70406;SDS011;57821;52.202;0.154;2024-03-08T05:04:25;66.78;;;33.35;;
70406;SDS011;57821;52.202;0.154;2024-03-08T05:06:52;67.82;;;32.03;;
70406;SDS011;57821;52.202;0.154;2024-03-08T05:09:20;71.18;;;31.77;;
70406;SDS011;57821;52.202;0.154;2024-03-08T05:11:52;64.00;;;31.67;;
70406;SDS011;57821;52.202;0.154;2024-03-08T05:14:19;69.75;;;33.03;;
70406;SDS011;57821;52.202;0.154;2024-03-08T05:16:47;62.00;;;29.55;;
70406;SDS011;57821;52.202;0.154;2024-03-08T05:19:17;65.70;;;31.52;;
70406;SDS011;57821;52.202;0.154;2024-03-08T05:21:45;63.83;;;31.92;;
70406;SDS011;57821;52.202;0.154;2024-03-08T05:24:12;64.85;;;32.40;;
70406;SDS011;57821;52.202;0.154;2024-03-08T05:26:41;58.58;;;30.02;;
70406;SDS011;57821;52.202;0.154;2024-03-08T05:29:08;62.97;;;33.22;;
70406;SDS011;57821;52.202;0.154;2024-03-08T05:31:39;66.30;;;33.10;;
70406;SDS011;57821;52.202;0.154;2024-03-08T05:34:13;67.50;;;31.92;;
70406;SDS011;57821;52.202;0.154;2024-03-08T05:36:41;70.03;;;33.50;;
70406;SDS011;57821;52.202;0.154;2024-03-08T05:39:11;68.47;;;32.97;;
70406;SDS011;57821;52.202;0.154;2024-03-08T05:41:38;72.00;;;32.22;;
70406;SDS011;57821;52.202;0.154;2024-03-08T05:44:07;64.68;;;31.17;;
70406;SDS011;57821;52.202;0.154;2024-03-08T05:46:35;66.45;;;33.97;;
70406;SDS011;57821;52.202;0.154;2024-03-08T05:49:04;72.47;;;32.80;;
70406;SDS011;57821;52.202;0.154;2024-03-08T05:51:33;70.20;;;33.53;;
70406;SDS011;57821;52.202;0.154;2024-03-08T05:54:03;69.97;;;33.83;;
70406;SDS011;57821;52.202;0.154;2024-03-08T05:56:37;66.50;;;33.08;;
70406;SDS011;57821;52.202;0.154;2024-03-08T05:59:05;70.20;;;32.78;;
70406;SDS011;57821;52.202;0.154;2024-03-08T06:01:31;67.13;;;32.78;;
70406;SDS011;57821;52.202;0.154;2024-03-08T06:03:58;66.18;;;33.55;;
70406;SDS011;57821;52.202;0.154;2024-03-08T06:06:25;64.75;;;32.45;;
70406;SDS011;57821;52.202;0.154;2024-03-08T06:08:52;73.65;;;32.88;;
70406;SDS011;57821;52.202;0.154;2024-03-08T06:11:19;64.20;;;31.33;;
70406;SDS011;57821;52.202;0.154;2024-03-08T06:13:47;66.65;;;32.10;;
70406;SDS011;57821;52.202;0.154;2024-03-08T06:16:14;63.20;;;33.05;;
70406;SDS011;57821;52.202;0.154;2024-03-08T06:18:41;69.93;;;32.88;;
70406;SDS011;57821;52.202;0.154;2024-03-08T06:21:08;68.55;;;32.13;;
70406;SDS011;57821;52.202;0.154;2024-03-08T06:23:38;65.75;;;31.45;;
70406;SDS011;57821;52.202;0.154;2024-03-08T06:26:06;67.80;;;32.10;;
70406;SDS011;57821;52.202;0.154;2024-03-08T06:28:33;70.38;;;31.13;;
70406;SDS011;57821;52.202;0.154;2024-03-08T06:31:01;76.90;;;32.13;;
70406;SDS011;57821;52.202;0.154;2024-03-08T06:33:29;67.30;;;32.35;;
70406;SDS011;57821;52.202;0.154;2024-03-08T06:35:57;73.03;;;31.65;;
70406;SDS011;57821;52.202;0.154;2024-03-08T06:38:24;72.78;;;33.53;;
70406;SDS011;57821;52.202;0.154;2024-03-08T06:40:51;78.63;;;33.55;;
70406;SDS011;57821;52.202;0.154;2024-03-08T06:43:19;64.43;;;32.88;;
70406;SDS011;57821;52.202;0.154;2024-03-08T06:45:46;63.72;;;32.38;;
70406;SDS011;57821;52.202;0.154;2024-03-08T06:48:16;63.85;;;32.63;;
70406;SDS011;57821;52.202;0.154;2024-03-08T06:50:46;62.55;;;31.40;;
70406;SDS011;57821;52.202;0.154;2024-03-08T06:53:14;60.67;;;31.65;;
70406;SDS011;57821;52.202;0.154;2024-03-08T06:55:43;64.68;;;32.78;;
70406;SDS011;57821;52.202;0.154;2024-03-08T06:58:10;72.95;;;33.63;;
70406;SDS011;57821;52.202;0.154;2024-03-08T07:00:37;66.35;;;33.42;;
70406;SDS011;57821;52.202;0.154;2024-03-08T07:03:07;74.75;;;33.38;;
70406;SDS011;57821;52.202;0.154;2024-03-08T07:05:34;71.25;;;33.08;;
70406;SDS011;57821;52.202;0.154;2024-03-08T07:08:01;66.03;;;31.52;;
70406;SDS011;57821;52.202;0.154;2024-03-08T07:10:28;74.07;;;34.15;;
70406;SDS011;57821;52.202;0.154;2024-03-08T07:12:55;64.72;;;32.30;;
70406;SDS011;57821;52.202;0.154;2024-03-08T07:15:22;71.70;;;33.10;;
70406;SDS011;57821;52.202;0.154;2024-03-08T07:17:49;75.05;;;32.08;;
70406;SDS011;57821;52.202;0.154;2024-03-08T07:20:19;71.10;;;32.78;;
70406;SDS011;57821;52.202;0.154;2024-03-08T07:22:46;69.03;;;32.38;;
70406;SDS011;57821;52.202;0.154;2024-03-08T07:25:20;65.25;;;32.30;;
70406;SDS011;57821;52.202;0.154;2024-03-08T07:27:49;71.10;;;32.45;;
70406;SDS011;57821;52.202;0.154;2024-03-08T07:30:24;73.88;;;33.90;;
70406;SDS011;57821;52.202;0.154;2024-03-08T07:33:10;65.35;;;32.63;;
70406;SDS011;57821;52.202;0.154;2024-03-08T07:35:41;64.28;;;32.00;;
70406;SDS011;57821;52.202;0.154;2024-03-08T07:38:11;70.63;;;33.47;;
70406;SDS011;57821;52.202;0.154;2024-03-08T07:40:39;70.93;;;33.58;;
70406;SDS011;57821;52.202;0.154;2024-03-08T07:43:07;77.80;;;33.38;;
70406;SDS011;57821;52.202;0.154;2024-03-08T07:45:34;61.80;;;33.17;;
70406;SDS011;57821;52.202;0.154;2024-03-08T07:48:02;65.47;;;32.58;;
70406;SDS011;57821;52.202;0.154;2024-03-08T07:50:30;70.00;;;32.90;;
70406;SDS011;57821;52.202;0.154;2024-03-08T07:53:00;70.45;;;33.63;;
70406;SDS011;57821;52.202;0.154;2024-03-08T07:55:29;63.28;;;33.03;;
70406;SDS011;57821;52.202;0.154;2024-03-08T07:57:57;69.53;;;34.65;;
70406;SDS011;57821;52.202;0.154;2024-03-08T08:00:24;65.82;;;32.30;;
70406;SDS011;57821;52.202;0.154;2024-03-08T08:02:53;63.65;;;32.35;;
70406;SDS011;57821;52.202;0.154;2024-03-08T08:05:20;68.57;;;34.53;;
70406;SDS011;57821;52.202;0.154;2024-03-08T08:07:47;66.40;;;33.65;;
70406;SDS011;57821;52.202;0.154;2024-03-08T08:10:17;63.10;;;32.83;;
70406;SDS011;57821;52.202;0.154;2024-03-08T08:12:52;67.32;;;31.55;;
70406;SDS011;57821;52.202;0.154;2024-03-08T08:15:19;63.90;;;33.70;;
70406;SDS011;57821;52.202;0.154;2024-03-08T08:17:46;67.30;;;34.42;;
70406;SDS011;57821;52.202;0.154;2024-03-08T08:20:16;62.03;;;31.90;;
70406;SDS011;57821;52.202;0.154;2024-03-08T08:22:44;60.40;;;32.92;;
70406;SDS011;57821;52.202;0.154;2024-03-08T08:25:11;64.20;;;32.85;;
70406;SDS011;57821;52.202;0.154;2024-03-08T08:27:39;62.47;;;33.45;;
70406;SDS011;57821;52.202;0.154;2024-03-08T08:30:06;60.10;;;32.97;;
70406;SDS011;57821;52.202;0.154;2024-03-08T08:32:35;57.13;;;32.30;;
70406;SDS011;57821;52.202;0.154;2024-03-08T08:35:11;63.30;;;32.65;;
70406;SDS011;57821;52.202;0.154;2024-03-08T08:37:39;54.58;;;31.60;;
70406;SDS011;57821;52.202;0.154;2024-03-08T08:40:06;59.05;;;33.65;;
70406;SDS011;57821;52.202;0.154;2024-03-08T08:42:36;61.50;;;32.33;;
70406;SDS011;57821;52.202;0.154;2024-03-08T08:45:06;55.75;;;31.95;;
70406;SDS011;57821;52.202;0.154;2024-03-08T08:47:43;59.13;;;31.67;;
70406;SDS011;57821;52.202;0.154;2024-03-08T08:50:12;58.80;;;32.13;;
70406;SDS011;57821;52.202;0.154;2024-03-08T08:52:39;64.38;;;34.33;;
70406;SDS011;57821;52.202;0.154;2024-03-08T08:55:07;64.80;;;33.40;;
70406;SDS011;57821;52.202;0.154;2024-03-08T08:57:34;58.55;;;31.65;;
70406;SDS011;57821;52.202;0.154;2024-03-08T09:00:02;53.35;;;31.98;;
70406;SDS011;57821;52.202;0.154;2024-03-08T09:02:33;63.70;;;33.10;;
70406;SDS011;57821;52.202;0.154;2024-03-08T09:05:01;62.92;;;33.42;;
70406;SDS011;57821;52.202;0.154;2024-03-08T09:07:28;56.15;;;32.20;;
70406;SDS011;57821;52.202;0.154;2024-03-08T09:09:55;57.55;;;33.67;;
70406;SDS011;57821;52.202;0.154;2024-03-08T09:12:24;55.90;;;31.63;;
70406;SDS011;57821;52.202;0.154;2024-03-08T09:14:51;54.95;;;31.70;;
70406;SDS011;57821;52.202;0.154;2024-03-08T09:17:18;53.60;;;30.90;;
70406;SDS011;57821;52.202;0.154;2024-03-08T09:19:47;54.53;;;31.50;;
70406;SDS011;57821;52.202;0.154;2024-03-08T09:22:17;53.90;;;29.52;;
70406;SDS011;57821;52.202;0.154;2024-03-08T09:24:44;53.65;;;30.58;;
70406;SDS011;57821;52.202;0.154;2024-03-08T09:27:12;56.38;;;31.88;;
70406;SDS011;57821;52.202;0.154;2024-03-08T09:29:40;52.78;;;30.50;;
70406;SDS011;57821;52.202;0.154;2024-03-08T09:32:07;55.65;;;31.55;;
70406;SDS011;57821;52.202;0.154;2024-03-08T09:34:34;49.72;;;30.67;;
70406;SDS011;57821;52.202;0.154;2024-03-08T09:37:04;58.50;;;30.88;;
70406;SDS011;57821;52.202;0.154;2024-03-08T09:39:31;48.42;;;31.17;;
70406;SDS011;57821;52.202;0.154;2024-03-08T09:42:00;54.88;;;28.77;;
70406;SDS011;57821;52.202;0.154;2024-03-08T09:44:27;47.63;;;28.77;;
70406;SDS011;57821;52.202;0.154;2024-03-08T09:46:55;45.28;;;28.40;;
70406;SDS011;57821;52.202;0.154;2024-03-08T09:49:24;45.03;;;27.70;;
70406;SDS011;57821;52.202;0.154;2024-03-08T09:51:51;50.92;;;28.48;;
70406;SDS011;57821;52.202;0.154;2024-03-08T09:54:19;44.95;;;26.98;;
70406;SDS011;57821;52.202;0.154;2024-03-08T09:56:51;45.23;;;27.83;;
70406;SDS011;57821;52.202;0.154;2024-03-08T09:59:18;42.58;;;26.40;;
70406;SDS011;57821;52.202;0.154;2024-03-08T10:02:09;43.30;;;27.13;;
70406;SDS011;57821;52.202;0.154;2024-03-08T10:04:41;43.58;;;27.35;;
70406;SDS011;57821;52.202;0.154;2024-03-08T10:07:09;48.65;;;27.85;;
70406;SDS011;57821;52.202;0.154;2024-03-08T10:09:35;48.85;;;27.38;;
70406;SDS011;57821;52.202;0.154;2024-03-08T10:12:02;40.00;;;25.65;;
70406;SDS011;57821;52.202;0.154;2024-03-08T10:14:29;39.42;;;23.73;;
70406;SDS011;57821;52.202;0.154;2024-03-08T10:16:57;39.67;;;24.38;;
70406;SDS011;57821;52.202;0.154;2024-03-08T10:19:27;38.97;;;23.77;;
70406;SDS011;57821;52.202;0.154;2024-03-08T10:21:58;39.70;;;24.83;;
70406;SDS011;57821;52.202;0.154;2024-03-08T10:24:26;39.97;;;25.13;;
70406;SDS011;57821;52.202;0.154;2024-03-08T10:26:53;37.47;;;23.00;;
70406;SDS011;57821;52.202;0.154;2024-03-08T10:29:20;38.53;;;22.90;;
70406;SDS011;57821;52.202;0.154;2024-03-08T10:31:47;35.00;;;24.55;;
70406;SDS011;57821;52.202;0.154;2024-03-08T10:34:14;35.85;;;22.17;;
70406;SDS011;57821;52.202;0.154;2024-03-08T10:36:41;35.20;;;22.25;;
70406;SDS011;57821;52.202;0.154;2024-03-08T10:39:14;38.08;;;21.92;;
70406;SDS011;57821;52.202;0.154;2024-03-08T10:41:57;35.92;;;22.95;;
70406;SDS011;57821;52.202;0.154;2024-03-08T10:49:39;35.70;;;22.27;;
70406;SDS011;57821;52.202;0.154;2024-03-08T10:52:21;34.60;;;22.75;;
70406;SDS011;57821;52.202;0.154;2024-03-08T10:54:49;37.47;;;22.85;;
70406;SDS011;57821;52.202;0.154;2024-03-08T10:57:18;32.58;;;22.00;;
70406;SDS011;57821;52.202;0.154;2024-03-08T10:59:50;35.90;;;21.40;;
70406;SDS011;57821;52.202;0.154;2024-03-08T11:02:20;34.25;;;21.02;;
70406;SDS011;57821;52.202;0.154;2024-03-08T11:04:47;30.42;;;20.55;;
70406;SDS011;57821;52.202;0.154;2024-03-08T11:07:16;30.65;;;20.63;;
70406;SDS011;57821;52.202;0.154;2024-03-08T11:09:45;34.05;;;20.42;;
70406;SDS011;57821;52.202;0.154;2024-03-08T11:14:52;36.45;;;21.48;;
70406;SDS011;57821;52.202;0.154;2024-03-08T11:17:44;32.35;;;21.17;;
70406;SDS011;57821;52.202;0.154;2024-03-08T11:20:11;34.87;;;20.77;;
70406;SDS011;57821;52.202;0.154;2024-03-08T11:22:52;33.65;;;21.10;;
70406;SDS011;57821;52.202;0.154;2024-03-08T11:25:39;29.65;;;19.65;;
70406;SDS011;57821;52.202;0.154;2024-03-08T11:28:20;36.47;;;18.98;;
70406;SDS011;57821;52.202;0.154;2024-03-08T11:33:28;36.83;;;20.70;;
70406;SDS011;57821;52.202;0.154;2024-03-08T11:38:52;33.05;;;18.83;;
70406;SDS011;57821;52.202;0.154;2024-03-08T11:41:21;29.15;;;18.95;;
70406;SDS011;57821;52.202;0.154;2024-03-08T11:43:52;38.00;;;18.10;;
70406;SDS011;57821;52.202;0.154;2024-03-08T11:46:31;30.92;;;18.10;;
70406;SDS011;57821;52.202;0.154;2024-03-08T11:48:58;27.60;;;16.30;;
70406;SDS011;57821;52.202;0.154;2024-03-08T11:51:27;30.08;;;16.88;;
70406;SDS011;57821;52.202;0.154;2024-03-08T11:53:54;26.27;;;17.42;;
70406;SDS011;57821;52.202;0.154;2024-03-08T11:56:22;26.83;;;17.27;;
70406;SDS011;57821;52.202;0.154;2024-03-08T11:58:53;30.08;;;16.88;;
70406;SDS011;57821;52.202;0.154;2024-03-08T12:01:28;30.10;;;17.10;;
70406;SDS011;57821;52.202;0.154;2024-03-08T12:03:56;27.05;;;17.10;;
70406;SDS011;57821;52.202;0.154;2024-03-08T12:06:25;33.50;;;17.00;;
70406;SDS011;57821;52.202;0.154;2024-03-08T12:08:53;28.42;;;16.85;;
70406;SDS011;57821;52.202;0.154;2024-03-08T12:11:20;26.95;;;16.45;;
70406;SDS011;57821;52.202;0.154;2024-03-08T12:13:50;26.23;;;15.68;;
70406;SDS011;57821;52.202;0.154;2024-03-08T12:16:18;26.83;;;15.13;;
70406;SDS011;57821;52.202;0.154;2024-03-08T12:18:46;22.75;;;13.75;;
70406;SDS011;57821;52.202;0.154;2024-03-08T12:21:12;25.48;;;14.10;;
70406;SDS011;57821;52.202;0.154;2024-03-08T12:23:43;20.65;;;12.82;;
70406;SDS011;57821;52.202;0.154;2024-03-08T12:26:14;27.42;;;14.85;;
70406;SDS011;57821;52.202;0.154;2024-03-08T12:28:43;20.40;;;13.65;;
70406;SDS011;57821;52.202;0.154;2024-03-08T12:31:14;21.00;;;12.63;;
70406;SDS011;57821;52.202;0.154;2024-03-08T12:33:50;25.48;;;15.40;;
70406;SDS011;57821;52.202;0.154;2024-03-08T12:36:23;23.75;;;14.82;;
70406;SDS011;57821;52.202;0.154;2024-03-08T12:38:50;24.75;;;14.48;;
70406;SDS011;57821;52.202;0.154;2024-03-08T12:41:20;23.35;;;15.68;;
70406;SDS011;57821;52.202;0.154;2024-03-08T12:43:47;26.95;;;13.98;;
70406;SDS011;57821;52.202;0.154;2024-03-08T12:46:18;22.25;;;15.13;;
70406;SDS011;57821;52.202;0.154;2024-03-08T12:48:48;22.85;;;14.60;;
70406;SDS011;57821;52.202;0.154;2024-03-08T12:51:19;24.08;;;14.82;;
70406;SDS011;57821;52.202;0.154;2024-03-08T12:56:15;22.75;;;14.25;;
70406;SDS011;57821;52.202;0.154;2024-03-08T12:58:54;23.70;;;14.82;;
70406;SDS011;57821;52.202;0.154;2024-03-08T13:01:21;24.58;;;13.07;;
70406;SDS011;57821;52.202;0.154;2024-03-08T13:03:49;22.70;;;13.52;;
70406;SDS011;57821;52.202;0.154;2024-03-08T13:06:16;21.27;;;13.80;;
70406;SDS011;57821;52.202;0.154;2024-03-08T13:08:42;22.02;;;13.10;;
70406;SDS011;57821;52.202;0.154;2024-03-08T13:11:10;20.42;;;13.77;;
70406;SDS011;57821;52.202;0.154;2024-03-08T13:13:38;27.45;;;14.68;;
70406;SDS011;57821;52.202;0.154;2024-03-08T13:16:06;23.10;;;14.77;;
70406;SDS011;57821;52.202;0.154;2024-03-08T13:18:36;19.10;;;12.95;;
70406;SDS011;57821;52.202;0.154;2024-03-08T13:21:03;21.52;;;13.95;;
70406;SDS011;57821;52.202;0.154;2024-03-08T13:23:34;23.45;;;13.85;;
70406;SDS011;57821;52.202;0.154;2024-03-08T13:26:08;22.88;;;14.55;;
70406;SDS011;57821;52.202;0.154;2024-03-08T13:28:50;21.60;;;13.88;;
70406;SDS011;57821;52.202;0.154;2024-03-08T13:31:20;22.33;;;13.48;;
70406;SDS011;57821;52.202;0.154;2024-03-08T13:33:47;22.98;;;13.35;;
70406;SDS011;57821;52.202;0.154;2024-03-08T13:36:14;23.80;;;15.23;;
70406;SDS011;57821;52.202;0.154;2024-03-08T13:38:42;22.65;;;14.23;;
70406;SDS011;57821;52.202;0.154;2024-03-08T13:41:10;22.92;;;14.73;;
70406;SDS011;57821;52.202;0.154;2024-03-08T13:43:40;27.30;;;14.77;;
70406;SDS011;57821;52.202;0.154;2024-03-08T13:46:08;22.25;;;13.77;;
70406;SDS011;57821;52.202;0.154;2024-03-08T13:48:37;24.88;;;14.20;;
70406;SDS011;57821;52.202;0.154;2024-03-08T13:51:07;24.87;;;13.70;;
70406;SDS011;57821;52.202;0.154;2024-03-08T13:53:39;22.88;;;13.57;;
70406;SDS011;57821;52.202;0.154;2024-03-08T13:56:06;21.88;;;13.18;;
70406;SDS011;57821;52.202;0.154;2024-03-08T13:58:37;23.80;;;13.90;;
70406;SDS011;57821;52.202;0.154;2024-03-08T14:01:06;23.70;;;14.65;;
70406;SDS011;57821;52.202;0.154;2024-03-08T14:03:38;21.13;;;13.93;;
70406;SDS011;57821;52.202;0.154;2024-03-08T14:06:08;25.65;;;13.93;;
70406;SDS011;57821;52.202;0.154;2024-03-08T14:08:49;24.02;;;14.98;;
70406;SDS011;57821;52.202;0.154;2024-03-08T14:11:16;24.13;;;13.70;;
70406;SDS011;57821;52.202;0.154;2024-03-08T14:13:45;25.65;;;14.68;;
70406;SDS011;57821;52.202;0.154;2024-03-08T14:16:12;24.90;;;15.30;;
70406;SDS011;57821;52.202;0.154;2024-03-08T14:18:39;25.35;;;15.07;;
70406;SDS011;57821;52.202;0.154;2024-03-08T14:21:06;29.05;;;15.63;;
70406;SDS011;57821;52.202;0.154;2024-03-08T14:23:37;27.60;;;15.55;;
70406;SDS011;57821;52.202;0.154;2024-03-08T14:26:04;27.55;;;16.00;;
70406;SDS011;57821;52.202;0.154;2024-03-08T14:28:33;24.60;;;15.48;;
70406;SDS011;57821;52.202;0.154;2024-03-08T14:31:01;23.17;;;13.77;;
70406;SDS011;57821;52.202;0.154;2024-03-08T14:33:33;23.48;;;14.52;;
70406;SDS011;57821;52.202;0.154;2024-03-08T14:36:09;23.92;;;15.27;;
70406;SDS011;57821;52.202;0.154;2024-03-08T14:38:40;26.38;;;15.32;;
70406;SDS011;57821;52.202;0.154;2024-03-08T14:41:06;23.38;;;14.05;;
70406;SDS011;57821;52.202;0.154;2024-03-08T14:43:33;25.50;;;13.90;;
70406;SDS011;57821;52.202;0.154;2024-03-08T14:46:00;26.33;;;14.48;;
70406;SDS011;57821;52.202;0.154;2024-03-08T14:48:27;27.40;;;15.77;;
70406;SDS011;57821;52.202;0.154;2024-03-08T14:50:54;22.73;;;14.80;;